sensor_id;sensor_type;location;lat;lon;timestamp;P1;durP1;ratioP1;P2;durP2;ratioP2
66946;SDS011;53853;51.982;5.928;2023-02-26T00:01:13;6.13;;;3.38;;
66946;SDS011;53853;51.982;5.928;2023-02-26T00:03:47;7.18;;;2.90;;
66946;SDS011;53853;51.982;5.928;2023-02-26T00:06:17;9.02;;;3.10;;
66946;SDS011;53853;51.982;5.928;2023-02-26T00:08:47;8.80;;;3.28;;
66946;SDS011;53853;51.982;5.928;2023-02-26T00:11:17;13.18;;;3.92;;
66946;SDS011;53853;51.982;5.928;2023-02-26T00:13:48;9.43;;;3.40;;
66946;SDS011;53853;51.982;5.928;2023-02-26T00:16:25;7.32;;;3.10;;
66946;SDS011;53853;51.982;5.928;2023-02-26T00:18:56;6.88;;;2.97;;
66946;SDS011;53853;51.982;5.928;2023-02-26T00:21:29;7.45;;;3.00;;
66946;SDS011;53853;51.982;5.928;2023-02-26T00:23:59;11.77;;;3.83;;
66946;SDS011;53853;51.982;5.928;2023-02-26T00:26:31;8.55;;;4.43;;
66946;SDS011;53853;51.982;5.928;2023-02-26T00:29:03;8.07;;;3.88;;
66946;SDS011;53853;51.982;5.928;2023-02-26T00:31:36;8.55;;;3.45;;
66946;SDS011;53853;51.982;5.928;2023-02-26T00:34:09;7.87;;;3.30;;
66946;SDS011;53853;51.982;5.928;2023-02-26T00:36:43;7.05;;;2.92;;
66946;SDS011;53853;51.982;5.928;2023-02-26T00:39:20;9.60;;;3.45;;
66946;SDS011;53853;51.982;5.928;2023-02-26T00:42:03;9.13;;;3.25;;
66946;SDS011;53853;51.982;5.928;2023-02-26T00:44:33;9.68;;;3.05;;
66946;SDS011;53853;51.982;5.928;2023-02-26T00:47:08;10.23;;;3.65;;
66946;SDS011;53853;51.982;5.928;2023-02-26T00:49:52;8.82;;;3.70;;
66946;SDS011;53853;51.982;5.928;2023-02-26T00:52:32;9.13;;;3.45;;
66946;SDS011;53853;51.982;5.928;2023-02-26T00:55:08;10.27;;;3.78;;
66946;SDS011;53853;51.982;5.928;2023-02-26T00:57:38;13.18;;;4.00;;
66946;SDS011;53853;51.982;5.928;2023-02-26T01:00:09;10.52;;;3.15;;
66946;SDS011;53853;51.982;5.928;2023-02-26T01:02:44;8.88;;;3.13;;
66946;SDS011;53853;51.982;5.928;2023-02-26T01:05:16;5.20;;;2.70;;
66946;SDS011;53853;51.982;5.928;2023-02-26T01:07:55;6.00;;;2.80;;
66946;SDS011;53853;51.982;5.928;2023-02-26T01:13:01;6.68;;;2.58;;
66946;SDS011;53853;51.982;5.928;2023-02-26T01:15:32;5.47;;;2.60;;
66946;SDS011;53853;51.982;5.928;2023-02-26T01:18:06;4.18;;;2.70;;
66946;SDS011;53853;51.982;5.928;2023-02-26T01:20:42;8.38;;;3.85;;
66946;SDS011;53853;51.982;5.928;2023-02-26T01:23:16;5.50;;;2.67;;
66946;SDS011;53853;51.982;5.928;2023-02-26T01:25:52;7.70;;;2.42;;
66946;SDS011;53853;51.982;5.928;2023-02-26T01:28:26;6.68;;;2.50;;
66946;SDS011;53853;51.982;5.928;2023-02-26T01:30:58;9.32;;;3.33;;
66946;SDS011;53853;51.982;5.928;2023-02-26T01:33:34;9.60;;;2.85;;
66946;SDS011;53853;51.982;5.928;2023-02-26T01:36:11;5.00;;;2.33;;
66946;SDS011;53853;51.982;5.928;2023-02-26T01:38:48;6.05;;;2.45;;
66946;SDS011;53853;51.982;5.928;2023-02-26T01:41:28;13.57;;;3.30;;
66946;SDS011;53853;51.982;5.928;2023-02-26T01:44:07;7.05;;;2.20;;
66946;SDS011;53853;51.982;5.928;2023-02-26T01:46:47;4.43;;;2.47;;
66946;SDS011;53853;51.982;5.928;2023-02-26T01:49:30;5.88;;;2.40;;
66946;SDS011;53853;51.982;5.928;2023-02-26T01:52:01;5.00;;;2.67;;
66946;SDS011;53853;51.982;5.928;2023-02-26T01:54:34;7.82;;;2.97;;
66946;SDS011;53853;51.982;5.928;2023-02-26T01:57:06;5.32;;;2.22;;
66946;SDS011;53853;51.982;5.928;2023-02-26T01:59:41;6.65;;;2.72;;
66946;SDS011;53853;51.982;5.928;2023-02-26T02:02:15;5.90;;;2.90;;
66946;SDS011;53853;51.982;5.928;2023-02-26T02:04:51;6.97;;;2.83;;
66946;SDS011;53853;51.982;5.928;2023-02-26T02:07:22;9.35;;;2.63;;
66946;SDS011;53853;51.982;5.928;2023-02-26T02:09:52;12.15;;;3.40;;
66946;SDS011;53853;51.982;5.928;2023-02-26T02:12:24;3.72;;;2.03;;
66946;SDS011;53853;51.982;5.928;2023-02-26T02:15:07;7.00;;;2.38;;
66946;SDS011;53853;51.982;5.928;2023-02-26T02:17:44;3.95;;;2.35;;
66946;SDS011;53853;51.982;5.928;2023-02-26T02:23:31;8.57;;;2.83;;
66946;SDS011;53853;51.982;5.928;2023-02-26T02:32:03;8.60;;;2.97;;
66946;SDS011;53853;51.982;5.928;2023-02-26T02:34:39;7.38;;;2.55;;
66946;SDS011;53853;51.982;5.928;2023-02-26T02:37:16;5.57;;;2.38;;
66946;SDS011;53853;51.982;5.928;2023-02-26T02:39:52;5.45;;;2.28;;
66946;SDS011;53853;51.982;5.928;2023-02-26T02:42:25;6.17;;;2.20;;
66946;SDS011;53853;51.982;5.928;2023-02-26T02:45:02;6.05;;;2.45;;
66946;SDS011;53853;51.982;5.928;2023-02-26T02:47:39;7.03;;;2.15;;
66946;SDS011;53853;51.982;5.928;2023-02-26T02:50:13;7.78;;;2.58;;
66946;SDS011;53853;51.982;5.928;2023-02-26T02:52:47;9.50;;;2.20;;
66946;SDS011;53853;51.982;5.928;2023-02-26T02:55:23;6.03;;;1.90;;
66946;SDS011;53853;51.982;5.928;2023-02-26T02:57:57;4.40;;;2.05;;
66946;SDS011;53853;51.982;5.928;2023-02-26T03:00:31;6.15;;;2.22;;
66946;SDS011;53853;51.982;5.928;2023-02-26T03:03:08;11.88;;;2.53;;
66946;SDS011;53853;51.982;5.928;2023-02-26T03:05:43;3.95;;;2.03;;
66946;SDS011;53853;51.982;5.928;2023-02-26T03:08:14;6.22;;;2.40;;
66946;SDS011;53853;51.982;5.928;2023-02-26T03:10:47;6.97;;;2.17;;
66946;SDS011;53853;51.982;5.928;2023-02-26T03:13:18;6.82;;;2.30;;
66946;SDS011;53853;51.982;5.928;2023-02-26T03:16:02;5.53;;;2.05;;
66946;SDS011;53853;51.982;5.928;2023-02-26T03:18:52;5.70;;;2.13;;
66946;SDS011;53853;51.982;5.928;2023-02-26T03:21:37;8.68;;;2.30;;
66946;SDS011;53853;51.982;5.928;2023-02-26T03:24:23;7.40;;;2.20;;
66946;SDS011;53853;51.982;5.928;2023-02-26T03:26:58;8.55;;;2.28;;
66946;SDS011;53853;51.982;5.928;2023-02-26T03:29:37;3.70;;;2.13;;
66946;SDS011;53853;51.982;5.928;2023-02-26T03:32:13;4.07;;;1.98;;
66946;SDS011;53853;51.982;5.928;2023-02-26T03:34:52;4.30;;;2.17;;
66946;SDS011;53853;51.982;5.928;2023-02-26T03:37:30;7.65;;;1.88;;
66946;SDS011;53853;51.982;5.928;2023-02-26T03:40:05;5.15;;;1.73;;
66946;SDS011;53853;51.982;5.928;2023-02-26T03:42:40;7.05;;;2.42;;
66946;SDS011;53853;51.982;5.928;2023-02-26T03:45:14;9.23;;;2.05;;
66946;SDS011;53853;51.982;5.928;2023-02-26T03:47:49;6.22;;;2.20;;
66946;SDS011;53853;51.982;5.928;2023-02-26T03:50:26;4.35;;;1.63;;
66946;SDS011;53853;51.982;5.928;2023-02-26T03:53:20;6.22;;;2.17;;
66946;SDS011;53853;51.982;5.928;2023-02-26T03:56:06;3.50;;;1.85;;
66946;SDS011;53853;51.982;5.928;2023-02-26T03:59:01;3.35;;;1.98;;
66946;SDS011;53853;51.982;5.928;2023-02-26T04:01:45;6.07;;;2.65;;
66946;SDS011;53853;51.982;5.928;2023-02-26T04:04:20;5.38;;;2.50;;
66946;SDS011;53853;51.982;5.928;2023-02-26T04:06:58;5.47;;;2.38;;
66946;SDS011;53853;51.982;5.928;2023-02-26T04:09:29;5.72;;;1.90;;
66946;SDS011;53853;51.982;5.928;2023-02-26T04:11:59;9.23;;;2.50;;
66946;SDS011;53853;51.982;5.928;2023-02-26T04:14:29;4.60;;;1.70;;
66946;SDS011;53853;51.982;5.928;2023-02-26T04:16:59;4.75;;;2.13;;
66946;SDS011;53853;51.982;5.928;2023-02-26T04:19:29;6.93;;;1.90;;
66946;SDS011;53853;51.982;5.928;2023-02-26T04:22:02;5.75;;;2.25;;
66946;SDS011;53853;51.982;5.928;2023-02-26T04:24:32;4.47;;;2.10;;
66946;SDS011;53853;51.982;5.928;2023-02-26T04:27:02;10.07;;;2.40;;
66946;SDS011;53853;51.982;5.928;2023-02-26T04:29:32;5.63;;;1.95;;
66946;SDS011;53853;51.982;5.928;2023-02-26T04:32:02;6.07;;;2.22;;
66946;SDS011;53853;51.982;5.928;2023-02-26T04:34:32;4.53;;;1.73;;
66946;SDS011;53853;51.982;5.928;2023-02-26T04:37:05;4.55;;;1.58;;
66946;SDS011;53853;51.982;5.928;2023-02-26T04:39:36;3.92;;;1.88;;
66946;SDS011;53853;51.982;5.928;2023-02-26T04:42:08;5.05;;;1.98;;
66946;SDS011;53853;51.982;5.928;2023-02-26T04:44:38;3.45;;;1.83;;
66946;SDS011;53853;51.982;5.928;2023-02-26T04:47:08;5.18;;;1.80;;
66946;SDS011;53853;51.982;5.928;2023-02-26T04:49:38;5.53;;;1.70;;
66946;SDS011;53853;51.982;5.928;2023-02-26T04:52:11;3.58;;;1.67;;
66946;SDS011;53853;51.982;5.928;2023-02-26T04:54:41;4.95;;;1.85;;
66946;SDS011;53853;51.982;5.928;2023-02-26T04:57:14;6.25;;;1.85;;
66946;SDS011;53853;51.982;5.928;2023-02-26T04:59:44;4.15;;;1.52;;
66946;SDS011;53853;51.982;5.928;2023-02-26T05:02:14;4.90;;;1.60;;
66946;SDS011;53853;51.982;5.928;2023-02-26T05:04:47;7.00;;;1.83;;
66946;SDS011;53853;51.982;5.928;2023-02-26T05:07:19;6.47;;;1.90;;
66946;SDS011;53853;51.982;5.928;2023-02-26T05:09:49;5.68;;;2.08;;
66946;SDS011;53853;51.982;5.928;2023-02-26T05:12:19;4.30;;;1.85;;
66946;SDS011;53853;51.982;5.928;2023-02-26T05:14:49;4.00;;;1.52;;
66946;SDS011;53853;51.982;5.928;2023-02-26T05:17:19;5.85;;;1.70;;
66946;SDS011;53853;51.982;5.928;2023-02-26T05:19:49;7.28;;;1.50;;
66946;SDS011;53853;51.982;5.928;2023-02-26T05:22:21;8.32;;;1.98;;
66946;SDS011;53853;51.982;5.928;2023-02-26T05:24:52;5.07;;;1.55;;
66946;SDS011;53853;51.982;5.928;2023-02-26T05:27:22;3.28;;;2.08;;
66946;SDS011;53853;51.982;5.928;2023-02-26T05:29:51;6.22;;;1.70;;
66946;SDS011;53853;51.982;5.928;2023-02-26T05:32:21;6.90;;;2.13;;
66946;SDS011;53853;51.982;5.928;2023-02-26T05:34:55;7.85;;;2.30;;
66946;SDS011;53853;51.982;5.928;2023-02-26T05:37:27;4.88;;;1.65;;
66946;SDS011;53853;51.982;5.928;2023-02-26T05:39:57;6.32;;;2.30;;
66946;SDS011;53853;51.982;5.928;2023-02-26T05:42:27;4.00;;;1.60;;
66946;SDS011;53853;51.982;5.928;2023-02-26T05:44:57;5.55;;;1.77;;
66946;SDS011;53853;51.982;5.928;2023-02-26T05:47:29;6.38;;;2.30;;
66946;SDS011;53853;51.982;5.928;2023-02-26T05:49:59;5.82;;;2.08;;
66946;SDS011;53853;51.982;5.928;2023-02-26T05:52:31;4.28;;;1.58;;
66946;SDS011;53853;51.982;5.928;2023-02-26T05:55:01;3.22;;;1.30;;
66946;SDS011;53853;51.982;5.928;2023-02-26T05:57:32;5.75;;;1.83;;
66946;SDS011;53853;51.982;5.928;2023-02-26T06:00:03;7.25;;;1.80;;
66946;SDS011;53853;51.982;5.928;2023-02-26T06:02:40;5.57;;;1.88;;
66946;SDS011;53853;51.982;5.928;2023-02-26T06:05:11;4.10;;;1.77;;
66946;SDS011;53853;51.982;5.928;2023-02-26T06:07:43;3.58;;;1.70;;
66946;SDS011;53853;51.982;5.928;2023-02-26T06:10:13;5.78;;;1.63;;
66946;SDS011;53853;51.982;5.928;2023-02-26T06:12:43;6.05;;;1.70;;
66946;SDS011;53853;51.982;5.928;2023-02-26T06:15:13;3.85;;;1.77;;
66946;SDS011;53853;51.982;5.928;2023-02-26T06:17:43;5.85;;;1.55;;
66946;SDS011;53853;51.982;5.928;2023-02-26T06:20:13;3.83;;;1.60;;
66946;SDS011;53853;51.982;5.928;2023-02-26T06:22:46;4.78;;;1.63;;
66946;SDS011;53853;51.982;5.928;2023-02-26T06:25:16;8.00;;;1.70;;
66946;SDS011;53853;51.982;5.928;2023-02-26T06:27:46;5.45;;;1.92;;
66946;SDS011;53853;51.982;5.928;2023-02-26T06:30:16;3.10;;;1.50;;
66946;SDS011;53853;51.982;5.928;2023-02-26T06:32:48;5.65;;;1.77;;
66946;SDS011;53853;51.982;5.928;2023-02-26T06:35:18;4.45;;;1.73;;
66946;SDS011;53853;51.982;5.928;2023-02-26T06:37:51;5.10;;;1.73;;
66946;SDS011;53853;51.982;5.928;2023-02-26T06:40:21;5.07;;;1.58;;
66946;SDS011;53853;51.982;5.928;2023-02-26T06:42:51;5.30;;;1.55;;
66946;SDS011;53853;51.982;5.928;2023-02-26T06:45:21;6.40;;;1.50;;
66946;SDS011;53853;51.982;5.928;2023-02-26T06:47:52;4.05;;;1.42;;
66946;SDS011;53853;51.982;5.928;2023-02-26T06:50:22;8.43;;;2.08;;
66946;SDS011;53853;51.982;5.928;2023-02-26T06:52:54;6.13;;;1.60;;
66946;SDS011;53853;51.982;5.928;2023-02-26T06:55:24;3.78;;;1.70;;
66946;SDS011;53853;51.982;5.928;2023-02-26T06:57:55;5.97;;;1.92;;
66946;SDS011;53853;51.982;5.928;2023-02-26T07:00:25;3.22;;;1.80;;
66946;SDS011;53853;51.982;5.928;2023-02-26T07:02:55;2.72;;;1.60;;
66946;SDS011;53853;51.982;5.928;2023-02-26T07:05:25;3.42;;;1.50;;
66946;SDS011;53853;51.982;5.928;2023-02-26T07:07:58;5.80;;;1.65;;
66946;SDS011;53853;51.982;5.928;2023-02-26T07:10:30;4.40;;;1.88;;
66946;SDS011;53853;51.982;5.928;2023-02-26T07:13:01;5.88;;;1.60;;
66946;SDS011;53853;51.982;5.928;2023-02-26T07:15:31;8.82;;;1.70;;
66946;SDS011;53853;51.982;5.928;2023-02-26T07:18:01;2.70;;;1.55;;
66946;SDS011;53853;51.982;5.928;2023-02-26T07:20:32;4.75;;;1.70;;
66946;SDS011;53853;51.982;5.928;2023-02-26T07:23:04;6.53;;;1.67;;
66946;SDS011;53853;51.982;5.928;2023-02-26T07:25:34;4.82;;;1.80;;
66946;SDS011;53853;51.982;5.928;2023-02-26T07:28:04;3.42;;;1.67;;
66946;SDS011;53853;51.982;5.928;2023-02-26T07:30:35;5.13;;;1.58;;
66946;SDS011;53853;51.982;5.928;2023-02-26T07:33:06;3.58;;;1.55;;
66946;SDS011;53853;51.982;5.928;2023-02-26T07:35:37;7.50;;;2.22;;
66946;SDS011;53853;51.982;5.928;2023-02-26T07:38:09;3.42;;;1.50;;
66946;SDS011;53853;51.982;5.928;2023-02-26T07:40:39;5.35;;;1.88;;
66946;SDS011;53853;51.982;5.928;2023-02-26T07:43:09;3.88;;;2.00;;
66946;SDS011;53853;51.982;5.928;2023-02-26T07:45:39;3.17;;;1.48;;
66946;SDS011;53853;51.982;5.928;2023-02-26T07:48:09;3.75;;;1.42;;
66946;SDS011;53853;51.982;5.928;2023-02-26T07:50:39;4.63;;;1.67;;
66946;SDS011;53853;51.982;5.928;2023-02-26T07:53:12;6.38;;;2.13;;
66946;SDS011;53853;51.982;5.928;2023-02-26T07:55:42;8.68;;;2.28;;
66946;SDS011;53853;51.982;5.928;2023-02-26T07:58:11;4.97;;;1.50;;
66946;SDS011;53853;51.982;5.928;2023-02-26T08:00:41;6.00;;;2.65;;
66946;SDS011;53853;51.982;5.928;2023-02-26T08:03:11;5.80;;;1.92;;
66946;SDS011;53853;51.982;5.928;2023-02-26T08:05:44;10.82;;;2.70;;
66946;SDS011;53853;51.982;5.928;2023-02-26T08:08:17;4.47;;;2.33;;
66946;SDS011;53853;51.982;5.928;2023-02-26T08:10:47;7.45;;;1.80;;
66946;SDS011;53853;51.982;5.928;2023-02-26T08:13:17;5.43;;;1.70;;
66946;SDS011;53853;51.982;5.928;2023-02-26T08:15:47;5.43;;;1.88;;
66946;SDS011;53853;51.982;5.928;2023-02-26T08:18:16;3.60;;;1.60;;
66946;SDS011;53853;51.982;5.928;2023-02-26T08:20:46;3.28;;;1.63;;
66946;SDS011;53853;51.982;5.928;2023-02-26T08:23:22;5.25;;;1.77;;
66946;SDS011;53853;51.982;5.928;2023-02-26T08:25:58;3.95;;;1.83;;
66946;SDS011;53853;51.982;5.928;2023-02-26T08:28:28;6.18;;;1.70;;
66946;SDS011;53853;51.982;5.928;2023-02-26T08:30:59;3.75;;;1.98;;
66946;SDS011;53853;51.982;5.928;2023-02-26T08:33:30;4.30;;;1.55;;
66946;SDS011;53853;51.982;5.928;2023-02-26T08:36:00;7.50;;;1.67;;
66946;SDS011;53853;51.982;5.928;2023-02-26T08:38:33;5.05;;;1.75;;
66946;SDS011;53853;51.982;5.928;2023-02-26T08:41:03;5.45;;;2.20;;
66946;SDS011;53853;51.982;5.928;2023-02-26T08:43:33;3.83;;;1.52;;
66946;SDS011;53853;51.982;5.928;2023-02-26T08:46:03;5.38;;;1.70;;
66946;SDS011;53853;51.982;5.928;2023-02-26T08:48:33;4.40;;;1.60;;
66946;SDS011;53853;51.982;5.928;2023-02-26T08:51:04;7.38;;;2.25;;
66946;SDS011;53853;51.982;5.928;2023-02-26T08:53:37;6.78;;;2.03;;
66946;SDS011;53853;51.982;5.928;2023-02-26T08:56:10;6.50;;;1.77;;
66946;SDS011;53853;51.982;5.928;2023-02-26T08:58:40;5.82;;;1.70;;
66946;SDS011;53853;51.982;5.928;2023-02-26T09:01:10;5.88;;;1.75;;
66946;SDS011;53853;51.982;5.928;2023-02-26T09:03:40;6.55;;;1.83;;
66946;SDS011;53853;51.982;5.928;2023-02-26T09:06:10;4.78;;;1.60;;
66946;SDS011;53853;51.982;5.928;2023-02-26T09:08:43;6.22;;;2.22;;
66946;SDS011;53853;51.982;5.928;2023-02-26T09:11:14;6.05;;;1.60;;
66946;SDS011;53853;51.982;5.928;2023-02-26T09:13:44;4.32;;;2.00;;
66946;SDS011;53853;51.982;5.928;2023-02-26T09:16:13;4.85;;;1.20;;
66946;SDS011;53853;51.982;5.928;2023-02-26T09:18:44;5.90;;;1.38;;
66946;SDS011;53853;51.982;5.928;2023-02-26T09:21:13;5.03;;;1.65;;
66946;SDS011;53853;51.982;5.928;2023-02-26T09:23:46;5.85;;;2.00;;
66946;SDS011;53853;51.982;5.928;2023-02-26T09:26:16;3.83;;;1.27;;
66946;SDS011;53853;51.982;5.928;2023-02-26T09:28:46;4.13;;;1.70;;
66946;SDS011;53853;51.982;5.928;2023-02-26T09:31:16;3.00;;;1.33;;
66946;SDS011;53853;51.982;5.928;2023-02-26T09:33:46;4.82;;;1.77;;
66946;SDS011;53853;51.982;5.928;2023-02-26T09:36:16;4.57;;;1.52;;
66946;SDS011;53853;51.982;5.928;2023-02-26T09:38:49;2.25;;;1.10;;
66946;SDS011;53853;51.982;5.928;2023-02-26T09:41:20;7.03;;;1.85;;
66946;SDS011;53853;51.982;5.928;2023-02-26T09:43:57;3.33;;;1.52;;
66946;SDS011;53853;51.982;5.928;2023-02-26T09:46:38;2.97;;;1.45;;
66946;SDS011;53853;51.982;5.928;2023-02-26T09:49:16;4.53;;;1.70;;
66946;SDS011;53853;51.982;5.928;2023-02-26T09:51:51;5.93;;;1.80;;
66946;SDS011;53853;51.982;5.928;2023-02-26T09:54:29;6.05;;;1.45;;
66946;SDS011;53853;51.982;5.928;2023-02-26T09:57:04;3.72;;;1.52;;
66946;SDS011;53853;51.982;5.928;2023-02-26T09:59:38;3.88;;;1.42;;
66946;SDS011;53853;51.982;5.928;2023-02-26T10:02:11;6.63;;;1.85;;
66946;SDS011;53853;51.982;5.928;2023-02-26T10:04:50;4.13;;;1.30;;
66946;SDS011;53853;51.982;5.928;2023-02-26T10:07:30;2.38;;;1.52;;
66946;SDS011;53853;51.982;5.928;2023-02-26T10:10:15;3.28;;;1.25;;
66946;SDS011;53853;51.982;5.928;2023-02-26T10:12:50;5.88;;;1.27;;
66946;SDS011;53853;51.982;5.928;2023-02-26T10:15:22;4.13;;;1.65;;
66946;SDS011;53853;51.982;5.928;2023-02-26T10:17:58;2.92;;;1.40;;
66946;SDS011;53853;51.982;5.928;2023-02-26T10:20:36;4.10;;;1.23;;
66946;SDS011;53853;51.982;5.928;2023-02-26T10:23:12;2.97;;;1.27;;
66946;SDS011;53853;51.982;5.928;2023-02-26T10:25:53;4.85;;;1.90;;
66946;SDS011;53853;51.982;5.928;2023-02-26T10:31:24;4.72;;;1.30;;
66946;SDS011;53853;51.982;5.928;2023-02-26T10:34:07;2.97;;;1.50;;
66946;SDS011;53853;51.982;5.928;2023-02-26T10:36:52;2.47;;;1.20;;
66946;SDS011;53853;51.982;5.928;2023-02-26T10:39:32;3.40;;;1.40;;
66946;SDS011;53853;51.982;5.928;2023-02-26T10:42:11;3.40;;;1.63;;
66946;SDS011;53853;51.982;5.928;2023-02-26T10:44:48;4.10;;;1.27;;
66946;SDS011;53853;51.982;5.928;2023-02-26T10:47:32;2.47;;;0.98;;
66946;SDS011;53853;51.982;5.928;2023-02-26T10:50:08;2.10;;;1.10;;
66946;SDS011;53853;51.982;5.928;2023-02-26T10:52:42;3.35;;;1.50;;
66946;SDS011;53853;51.982;5.928;2023-02-26T10:55:21;5.05;;;1.42;;
66946;SDS011;53853;51.982;5.928;2023-02-26T10:58:02;3.22;;;1.30;;
66946;SDS011;53853;51.982;5.928;2023-02-26T11:00:34;4.63;;;1.80;;
66946;SDS011;53853;51.982;5.928;2023-02-26T11:03:04;4.32;;;1.65;;
66946;SDS011;53853;51.982;5.928;2023-02-26T11:05:39;4.40;;;1.77;;
66946;SDS011;53853;51.982;5.928;2023-02-26T11:08:10;8.13;;;2.45;;
66946;SDS011;53853;51.982;5.928;2023-02-26T11:10:47;2.53;;;1.20;;
66946;SDS011;53853;51.982;5.928;2023-02-26T11:13:23;2.50;;;1.45;;
66946;SDS011;53853;51.982;5.928;2023-02-26T11:15:55;3.05;;;1.33;;
66946;SDS011;53853;51.982;5.928;2023-02-26T11:18:29;3.85;;;1.30;;
66946;SDS011;53853;51.982;5.928;2023-02-26T11:21:04;5.30;;;1.50;;
66946;SDS011;53853;51.982;5.928;2023-02-26T11:23:36;2.72;;;1.25;;
66946;SDS011;53853;51.982;5.928;2023-02-26T11:26:07;4.25;;;1.50;;
66946;SDS011;53853;51.982;5.928;2023-02-26T11:28:49;2.25;;;1.20;;
66946;SDS011;53853;51.982;5.928;2023-02-26T11:31:22;3.90;;;1.25;;
66946;SDS011;53853;51.982;5.928;2023-02-26T11:33:57;1.88;;;1.17;;
66946;SDS011;53853;51.982;5.928;2023-02-26T11:36:30;5.63;;;1.33;;
66946;SDS011;53853;51.982;5.928;2023-02-26T11:39:02;2.67;;;1.25;;
66946;SDS011;53853;51.982;5.928;2023-02-26T11:41:36;4.93;;;1.30;;
66946;SDS011;53853;51.982;5.928;2023-02-26T11:44:10;5.45;;;1.02;;
66946;SDS011;53853;51.982;5.928;2023-02-26T11:46:43;6.15;;;1.10;;
66946;SDS011;53853;51.982;5.928;2023-02-26T11:52:00;2.78;;;1.27;;
66946;SDS011;53853;51.982;5.928;2023-02-26T11:54:44;2.45;;;1.17;;
66946;SDS011;53853;51.982;5.928;2023-02-26T11:57:17;3.92;;;1.30;;
66946;SDS011;53853;51.982;5.928;2023-02-26T11:59:54;2.70;;;1.20;;
66946;SDS011;53853;51.982;5.928;2023-02-26T12:02:30;3.25;;;1.20;;
66946;SDS011;53853;51.982;5.928;2023-02-26T12:05:04;4.38;;;1.40;;
66946;SDS011;53853;51.982;5.928;2023-02-26T12:07:35;3.60;;;1.27;;
66946;SDS011;53853;51.982;5.928;2023-02-26T12:10:08;3.00;;;1.15;;
66946;SDS011;53853;51.982;5.928;2023-02-26T12:12:47;2.97;;;1.17;;
66946;SDS011;53853;51.982;5.928;2023-02-26T12:15:30;5.80;;;1.33;;
66946;SDS011;53853;51.982;5.928;2023-02-26T12:18:13;2.22;;;1.05;;
66946;SDS011;53853;51.982;5.928;2023-02-26T12:21:04;4.03;;;1.55;;
66946;SDS011;53853;51.982;5.928;2023-02-26T12:26:50;4.60;;;1.10;;
66946;SDS011;53853;51.982;5.928;2023-02-26T12:32:27;3.20;;;1.42;;
66946;SDS011;53853;51.982;5.928;2023-02-26T12:35:16;2.60;;;1.02;;
66946;SDS011;53853;51.982;5.928;2023-02-26T12:38:02;3.78;;;1.25;;
66946;SDS011;53853;51.982;5.928;2023-02-26T12:40:42;4.30;;;1.15;;
66946;SDS011;53853;51.982;5.928;2023-02-26T12:43:29;2.40;;;1.23;;
66946;SDS011;53853;51.982;5.928;2023-02-26T12:46:07;2.55;;;1.23;;
66946;SDS011;53853;51.982;5.928;2023-02-26T12:48:52;2.22;;;1.17;;
66946;SDS011;53853;51.982;5.928;2023-02-26T12:51:46;2.97;;;1.20;;
66946;SDS011;53853;51.982;5.928;2023-02-26T12:57:26;3.65;;;1.00;;
66946;SDS011;53853;51.982;5.928;2023-02-26T13:00:21;4.77;;;1.60;;
66946;SDS011;53853;51.982;5.928;2023-02-26T13:06:04;4.13;;;1.30;;
66946;SDS011;53853;51.982;5.928;2023-02-26T13:08:54;2.63;;;1.13;;
66946;SDS011;53853;51.982;5.928;2023-02-26T13:11:39;2.83;;;1.20;;
66946;SDS011;53853;51.982;5.928;2023-02-26T13:14:19;1.80;;;1.20;;
66946;SDS011;53853;51.982;5.928;2023-02-26T13:16:59;3.80;;;1.40;;
66946;SDS011;53853;51.982;5.928;2023-02-26T13:19:36;3.97;;;1.17;;
66946;SDS011;53853;51.982;5.928;2023-02-26T13:22:16;3.53;;;1.15;;
66946;SDS011;53853;51.982;5.928;2023-02-26T13:24:50;4.70;;;1.80;;
66946;SDS011;53853;51.982;5.928;2023-02-26T13:27:27;2.95;;;1.42;;
66946;SDS011;53853;51.982;5.928;2023-02-26T13:30:09;2.78;;;1.15;;
66946;SDS011;53853;51.982;5.928;2023-02-26T13:32:49;2.15;;;1.30;;
66946;SDS011;53853;51.982;5.928;2023-02-26T13:35:24;1.95;;;1.10;;
66946;SDS011;53853;51.982;5.928;2023-02-26T13:38:01;4.10;;;1.38;;
66946;SDS011;53853;51.982;5.928;2023-02-26T13:40:43;4.00;;;1.20;;
66946;SDS011;53853;51.982;5.928;2023-02-26T13:43:22;2.10;;;0.85;;
66946;SDS011;53853;51.982;5.928;2023-02-26T13:46:06;1.73;;;1.00;;
66946;SDS011;53853;51.982;5.928;2023-02-26T13:48:47;3.15;;;1.25;;
66946;SDS011;53853;51.982;5.928;2023-02-26T13:51:30;1.70;;;0.98;;
66946;SDS011;53853;51.982;5.928;2023-02-26T13:54:07;4.28;;;1.40;;
66946;SDS011;53853;51.982;5.928;2023-02-26T13:57:05;1.88;;;1.20;;
66946;SDS011;53853;51.982;5.928;2023-02-26T13:59:45;2.03;;;1.17;;
66946;SDS011;53853;51.982;5.928;2023-02-26T14:02:36;2.47;;;1.23;;
66946;SDS011;53853;51.982;5.928;2023-02-26T14:05:27;1.77;;;1.00;;
66946;SDS011;53853;51.982;5.928;2023-02-26T14:08:21;5.88;;;1.00;;
66946;SDS011;53853;51.982;5.928;2023-02-26T14:11:32;2.92;;;1.58;;
66946;SDS011;53853;51.982;5.928;2023-02-26T14:14:12;1.85;;;1.08;;
66946;SDS011;53853;51.982;5.928;2023-02-26T14:22:47;1.23;;;0.95;;
66946;SDS011;53853;51.982;5.928;2023-02-26T14:25:26;1.65;;;1.08;;
66946;SDS011;53853;51.982;5.928;2023-02-26T14:33:56;3.20;;;1.20;;
66946;SDS011;53853;51.982;5.928;2023-02-26T14:36:33;2.13;;;1.02;;
66946;SDS011;53853;51.982;5.928;2023-02-26T14:39:15;2.40;;;1.33;;
66946;SDS011;53853;51.982;5.928;2023-02-26T14:41:54;5.30;;;1.48;;
66946;SDS011;53853;51.982;5.928;2023-02-26T14:44:31;3.58;;;1.10;;
66946;SDS011;53853;51.982;5.928;2023-02-26T14:47:05;3.55;;;1.75;;
66946;SDS011;53853;51.982;5.928;2023-02-26T14:49:36;4.20;;;1.35;;
66946;SDS011;53853;51.982;5.928;2023-02-26T14:52:12;3.42;;;1.20;;
66946;SDS011;53853;51.982;5.928;2023-02-26T14:54:59;2.60;;;1.50;;
66946;SDS011;53853;51.982;5.928;2023-02-26T14:57:40;2.80;;;1.50;;
66946;SDS011;53853;51.982;5.928;2023-02-26T15:00:21;3.47;;;1.25;;
66946;SDS011;53853;51.982;5.928;2023-02-26T15:06:04;5.07;;;1.30;;
66946;SDS011;53853;51.982;5.928;2023-02-26T15:08:51;1.85;;;1.00;;
66946;SDS011;53853;51.982;5.928;2023-02-26T15:11:41;2.78;;;1.65;;
66946;SDS011;53853;51.982;5.928;2023-02-26T15:14:30;2.75;;;1.13;;
66946;SDS011;53853;51.982;5.928;2023-02-26T15:17:19;3.20;;;1.25;;
66946;SDS011;53853;51.982;5.928;2023-02-26T15:20:09;2.30;;;1.15;;
66946;SDS011;53853;51.982;5.928;2023-02-26T15:22:55;2.58;;;1.40;;
66946;SDS011;53853;51.982;5.928;2023-02-26T15:25:38;2.85;;;1.25;;
66946;SDS011;53853;51.982;5.928;2023-02-26T15:28:11;2.08;;;1.30;;
66946;SDS011;53853;51.982;5.928;2023-02-26T15:30:45;2.08;;;1.20;;
66946;SDS011;53853;51.982;5.928;2023-02-26T15:33:20;1.80;;;1.08;;
66946;SDS011;53853;51.982;5.928;2023-02-26T15:35:53;1.77;;;0.98;;
66946;SDS011;53853;51.982;5.928;2023-02-26T15:38:25;2.92;;;1.10;;
66946;SDS011;53853;51.982;5.928;2023-02-26T15:40:56;2.95;;;1.35;;
66946;SDS011;53853;51.982;5.928;2023-02-26T15:43:30;1.75;;;1.10;;
66946;SDS011;53853;51.982;5.928;2023-02-26T15:46:00;4.18;;;1.25;;
66946;SDS011;53853;51.982;5.928;2023-02-26T15:48:34;2.33;;;0.93;;
66946;SDS011;53853;51.982;5.928;2023-02-26T15:51:07;2.13;;;1.15;;
66946;SDS011;53853;51.982;5.928;2023-02-26T15:53:41;3.00;;;1.08;;
66946;SDS011;53853;51.982;5.928;2023-02-26T15:56:13;1.52;;;1.02;;
66946;SDS011;53853;51.982;5.928;2023-02-26T15:58:48;2.95;;;1.20;;
66946;SDS011;53853;51.982;5.928;2023-02-26T16:01:21;2.30;;;1.02;;
66946;SDS011;53853;51.982;5.928;2023-02-26T16:03:56;2.67;;;1.30;;
66946;SDS011;53853;51.982;5.928;2023-02-26T16:06:29;3.40;;;1.15;;
66946;SDS011;53853;51.982;5.928;2023-02-26T16:09:00;2.67;;;1.20;;
66946;SDS011;53853;51.982;5.928;2023-02-26T16:11:32;2.63;;;1.17;;
66946;SDS011;53853;51.982;5.928;2023-02-26T16:16:41;2.67;;;1.15;;
66946;SDS011;53853;51.982;5.928;2023-02-26T16:19:16;1.77;;;1.20;;
66946;SDS011;53853;51.982;5.928;2023-02-26T16:21:50;4.00;;;1.15;;